Time;durP1;ratioP1;P1;durP2;ratioP2;P2;SDS_P1;SDS_P2;PMS_P1;PMS_P2;Temp;Humidity;BMP_temperature;BMP_pressure;BME280_temperature;BME280_humidity;BME280_pressure;Samples;Min_cycle;Max_cycle;Signal;HPM_P1;HPM_P2
2022/01/25 00:08:26;;;;;;;22.55;10.27;;;-2.80;70.40;;;;;;5158509;27;20085;-33
2022/01/25 00:15:07;;;;;;;44.33;19.67;;;-2.80;70.30;;;;;;5158603;27;20097;-34
2022/01/25 00:25:04;;;;;;;21.58;10.77;;;-2.70;70.10;;;;;;5158225;27;20029;-32
2022/01/25 00:30:44;;;;;;;301.45;92.72;;;-2.70;70.00;;;;;;5158073;27;20080;-33
2022/01/25 00:32:57;;;;;;;37.13;12.10;;;-2.80;70.00;;;;;;5154932;27;20038;-34
2022/01/25 00:35:23;;;;;;;20.10;10.75;;;-2.70;70.10;;;;;;5157819;27;20050;-33
2022/01/25 00:37:49;;;;;;;20.23;10.43;;;-2.70;70.00;;;;;;5158080;27;20100;-33
2022/01/25 00:40:15;;;;;;;81.28;27.75;;;-2.70;69.80;;;;;;5157747;27;20050;-34
2022/01/25 00:42:41;;;;;;;22.40;10.70;;;-2.70;69.70;;;;;;5158133;27;20035;-35
2022/01/25 00:45:09;;;;;;;23.33;11.25;;;-2.80;69.70;;;;;;5157790;27;20034;-34
2022/01/25 00:47:35;;;;;;;24.98;10.38;;;-2.80;70.00;;;;;;5158098;27;20269;-33
2022/01/25 00:50:01;;;;;;;33.72;15.05;;;-2.80;69.60;;;;;;5157665;27;20029;-34
2022/01/25 00:55:12;;;;;;;20.80;10.63;;;-2.80;69.80;;;;;;5157913;27;20026;-35
2022/01/25 00:57:37;;;;;;;58.90;24.77;;;-2.80;69.80;;;;;;5157580;27;20078;-33
2022/01/25 01:00:08;;;;;;;22.52;10.73;;;-2.80;69.80;;;;;;5157628;27;20026;-36
2022/01/25 01:02:33;;;;;;;27.42;12.40;;;-2.80;69.90;;;;;;5157818;27;20030;-32
2022/01/25 01:04:59;;;;;;;23.10;10.20;;;-2.80;69.90;;;;;;5157615;27;20026;-32
2022/01/25 01:07:25;;;;;;;22.50;10.85;;;-2.80;69.60;;;;;;5157568;27;20059;-33
2022/01/25 01:09:52;;;;;;;22.88;11.07;;;-2.80;69.80;;;;;;5157790;27;20030;-34
2022/01/25 01:12:59;;;;;;;23.27;10.43;;;-2.90;69.70;;;;;;5158019;27;20092;-34
2022/01/25 01:15:32;;;;;;;21.88;10.40;;;-2.90;69.80;;;;;;5159731;27;20122;-33
2022/01/25 01:47:48;;;;;;;37.15;15.93;;;-2.80;69.60;;;;;;5161101;27;20083;-32
2022/01/25 01:50:26;;;;;;;23.02;10.88;;;-2.80;69.60;;;;;;5161363;27;20164;-33
2022/01/25 01:52:53;;;;;;;21.02;10.52;;;-2.80;69.40;;;;;;5161353;27;20035;-33
2022/01/25 01:55:20;;;;;;;28.45;11.35;;;-2.80;69.50;;;;;;5161256;27;20053;-32
2022/01/25 01:57:48;;;;;;;28.42;12.48;;;-2.90;69.40;;;;;;5161210;27;20035;-33
2022/01/25 02:00:16;;;;;;;20.17;9.73;;;-2.90;69.60;;;;;;5161217;27;20322;-33
2022/01/25 02:02:42;;;;;;;19.65;10.35;;;-2.80;69.70;;;;;;5161275;27;20077;-32
2022/01/25 02:05:08;;;;;;;23.38;10.75;;;-2.80;69.80;;;;;;5160744;27;20031;-33
2022/01/25 02:07:34;;;;;;;21.73;10.57;;;-2.80;69.70;;;;;;5160567;27;20051;-34
2022/01/25 02:09:59;;;;;;;19.65;9.63;;;-2.80;69.60;;;;;;5161443;27;20104;-32
2022/01/25 02:12:26;;;;;;;19.98;8.98;;;-2.80;69.40;;;;;;5161082;27;20360;-32
2022/01/25 02:14:52;;;;;;;20.13;9.95;;;-2.80;69.40;;;;;;5160623;27;20038;-33
2022/01/25 02:23:00;;;;;;;28.38;11.82;;;-2.80;69.70;;;;;;5161429;27;20038;-34
2022/01/25 02:25:26;;;;;;;19.95;10.13;;;-2.80;69.60;;;;;;5160000;27;20022;-33
2022/01/25 02:27:52;;;;;;;146.82;50.13;;;-2.80;69.50;;;;;;5160190;27;20030;-33
2022/01/25 02:30:18;;;;;;;18.55;9.40;;;-2.80;69.50;;;;;;5160322;27;20398;-33
2022/01/25 02:32:44;;;;;;;37.70;16.52;;;-2.80;69.50;;;;;;5160631;27;20114;-33
2022/01/25 02:35:10;;;;;;;21.23;9.43;;;-2.90;69.50;;;;;;5160222;27;20097;-32
2022/01/25 02:37:38;;;;;;;18.95;10.05;;;-2.80;69.80;;;;;;5160510;27;20315;-33
2022/01/25 02:40:05;;;;;;;19.92;10.38;;;-2.80;69.80;;;;;;5160385;27;20053;-34
2022/01/25 02:42:31;;;;;;;21.88;10.38;;;-2.80;69.80;;;;;;5160250;27;20026;-32
2022/01/25 02:44:57;;;;;;;20.38;10.75;;;-2.80;69.80;;;;;;5160291;27;20037;-33
2022/01/25 02:50:07;;;;;;;22.40;9.05;;;-2.80;69.80;;;;;;5160362;27;20030;-32
2022/01/25 02:52:33;;;;;;;22.13;10.75;;;-2.80;69.70;;;;;;5160395;27;20402;-33
2022/01/25 02:54:58;;;;;;;19.38;10.30;;;-2.80;69.80;;;;;;5159910;27;20034;-36
2022/01/25 02:57:24;;;;;;;17.42;8.90;;;-2.70;69.80;;;;;;5159848;27;20045;-32
2022/01/25 02:59:50;;;;;;;20.83;10.10;;;-2.80;69.60;;;;;;5159984;27;20030;-33
2022/01/25 03:02:17;;;;;;;20.83;9.75;;;-2.80;69.50;;;;;;5159839;27;20029;-34
2022/01/25 03:04:43;;;;;;;32.97;16.33;;;-2.70;69.70;;;;;;5159502;27;20030;-32
2022/01/25 03:07:09;;;;;;;17.70;8.80;;;-2.70;69.60;;;;;;5160022;27;20319;-35
2022/01/25 03:09:36;;;;;;;21.90;9.65;;;-2.70;69.50;;;;;;5159060;27;20050;-32
2022/01/25 03:12:05;;;;;;;19.13;9.02;;;-2.70;69.40;;;;;;5159706;27;20033;-33
2022/01/25 03:14:34;;;;;;;19.25;9.98;;;-2.70;69.40;;;;;;5159331;27;20027;-33
2022/01/25 03:22:05;;;;;;;17.75;9.60;;;-2.70;69.50;;;;;;5159965;27;20021;-32
2022/01/25 03:24:31;;;;;;;19.55;9.77;;;-2.70;69.50;;;;;;5140773;27;20042;-34
2022/01/25 03:26:57;;;;;;;19.55;8.48;;;-2.70;69.40;;;;;;5159586;27;20062;-33
2022/01/25 03:29:23;;;;;;;16.98;9.30;;;-2.70;69.10;;;;;;5159286;27;20030;-34
2022/01/25 03:31:49;;;;;;;19.80;9.45;;;-2.70;69.30;;;;;;5159268;27;20350;-33
2022/01/25 03:34:14;;;;;;;18.25;8.95;;;-2.70;69.20;;;;;;5159114;27;20307;-33
2022/01/25 03:36:40;;;;;;;17.48;8.95;;;-2.70;69.00;;;;;;5159064;27;20147;-33
2022/01/25 03:39:06;;;;;;;16.92;8.90;;;-2.80;69.20;;;;;;5158497;27;20073;-33
2022/01/25 03:41:34;;;;;;;15.88;8.13;;;-2.70;69.40;;;;;;5159136;27;20022;-34
2022/01/25 03:44:01;;;;;;;16.00;7.78;;;-2.70;69.40;;;;;;5159531;27;20453;-33
2022/01/25 03:52:13;;;;;;;15.65;7.72;;;-2.80;69.40;;;;;;5159340;27;20110;-33
2022/01/25 03:54:39;;;;;;;14.70;7.40;;;-2.80;69.30;;;;;;5158384;27;20109;-33
2022/01/25 03:57:05;;;;;;;16.30;8.43;;;-2.80;69.50;;;;;;5158885;27;20023;-33
2022/01/25 03:59:31;;;;;;;14.27;7.90;;;-2.80;69.40;;;;;;5158311;27;20023;-32
2022/01/25 04:01:56;;;;;;;16.77;8.15;;;-2.90;69.40;;;;;;5158716;27;20054;-33
2022/01/25 04:04:25;;;;;;;15.57;6.75;;;-2.80;69.40;;;;;;5158489;27;20525;-34
2022/01/25 04:06:52;;;;;;;15.05;7.00;;;-2.90;69.30;;;;;;5158654;27;20050;-34
2022/01/25 04:09:18;;;;;;;34.47;15.38;;;-2.90;69.20;;;;;;5158164;27;20164;-34
2022/01/25 04:11:44;;;;;;;14.32;6.88;;;-2.90;69.40;;;;;;5158444;27;20031;-34
2022/01/25 04:14:10;;;;;;;14.88;7.18;;;-2.90;69.50;;;;;;5158255;27;20079;-32
2022/01/25 04:16:44;;;;;;;14.10;7.07;;;-2.90;69.60;;;;;;5158002;27;20402;-34
2022/01/25 04:19:18;;;;;;;14.38;7.07;;;-2.90;69.50;;;;;;5158653;27;20072;-33
2022/01/25 04:27:14;;;;;;;13.65;7.78;;;-2.90;69.40;;;;;;5158282;27;20124;-34
2022/01/25 04:29:40;;;;;;;11.38;6.65;;;-2.90;69.50;;;;;;5158231;27;20169;-33
2022/01/25 04:32:07;;;;;;;14.70;7.25;;;-2.90;69.50;;;;;;5158237;27;20045;-32
2022/01/25 04:56:05;;;;;;;14.85;6.85;;;-2.90;69.40;;;;;;5157887;27;20034;-33
2022/01/25 04:58:45;;;;;;;17.50;8.35;;;-2.90;69.30;;;;;;5157222;27;20100;-34
2022/01/25 05:01:11;;;;;;;13.55;6.95;;;-3.00;69.10;;;;;;5158173;27;20076;-33
2022/01/25 05:04:03;;;;;;;17.25;8.13;;;-2.90;69.30;;;;;;5157949;27;20023;-33
2022/01/25 05:06:24;;;;;;;9.85;5.88;;;-2.90;69.30;;;;;;5156903;27;20338;-33
2022/01/25 05:08:53;;;;;;;12.02;6.57;;;-3.00;69.30;;;;;;5157463;27;20061;-32
2022/01/25 05:11:29;;;;;;;11.98;6.20;;;-2.90;69.40;;;;;;5157623;27;20119;-35
2022/01/25 05:14:13;;;;;;;11.98;6.55;;;-3.00;69.30;;;;;;5158174;27;20306;-33
2022/01/25 05:16:49;;;;;;;12.05;6.40;;;-2.90;69.40;;;;;;5157744;27;20429;-33
2022/01/25 05:24:38;;;;;;;10.63;5.95;;;-2.90;69.20;;;;;;5157446;27;20174;-34
2022/01/25 05:27:05;;;;;;;12.25;6.20;;;-2.90;69.10;;;;;;5157652;27;20364;-35
2022/01/25 05:29:31;;;;;;;11.65;6.32;;;-3.00;69.10;;;;;;5157489;27;20031;-33
2022/01/25 05:31:57;;;;;;;14.07;6.72;;;-3.00;69.20;;;;;;5157602;27;20088;-33
2022/01/25 05:34:23;;;;;;;13.82;7.13;;;-3.00;69.30;;;;;;5156898;27;20031;-33
2022/01/25 05:36:48;;;;;;;11.25;6.55;;;-3.00;69.20;;;;;;5157158;27;20428;-35
2022/01/25 05:39:19;;;;;;;19.58;7.15;;;-3.00;69.20;;;;;;5156768;27;20035;-33
2022/01/25 05:41:53;;;;;;;12.63;6.72;;;-3.00;69.30;;;;;;5157490;27;20332;-33
2022/01/25 05:49:13;;;;;;;14.82;6.82;;;-3.00;69.40;;;;;;5150426;27;20441;-33
2022/01/25 05:51:39;;;;;;;17.30;7.20;;;-3.00;69.20;;;;;;5136515;27;20023;-33
2022/01/25 05:54:05;;;;;;;13.18;6.93;;;-3.00;69.20;;;;;;5136853;28;20316;-32
2022/01/25 05:56:31;;;;;;;15.77;7.45;;;-3.00;69.20;;;;;;5136141;28;20031;-35
2022/01/25 05:58:56;;;;;;;16.88;8.45;;;-3.00;69.20;;;;;;5136458;28;20027;-33
2022/01/25 06:01:22;;;;;;;17.67;8.15;;;-3.00;69.10;;;;;;5139825;27;20030;-36
2022/01/25 06:03:48;;;;;;;17.23;8.02;;;-3.00;69.10;;;;;;5161185;27;20027;-33
2022/01/25 06:06:13;;;;;;;15.35;7.50;;;-3.00;69.20;;;;;;5160258;27;20031;-34
2022/01/25 06:08:39;;;;;;;17.13;8.43;;;-3.00;69.30;;;;;;5159976;27;20088;-32
2022/01/25 06:11:06;;;;;;;17.15;8.05;;;-3.00;69.30;;;;;;5158027;27;20103;-34
2022/01/25 06:13:32;;;;;;;16.70;8.73;;;-2.90;69.30;;;;;;5151638;27;20070;-33
2022/01/25 06:15:58;;;;;;;15.85;8.27;;;-2.90;69.30;;;;;;5160661;27;20123;-34
2022/01/25 06:18:24;;;;;;;17.90;8.75;;;-2.90;69.10;;;;;;5160580;27;20114;-34
2022/01/25 06:20:49;;;;;;;15.75;8.60;;;-2.80;69.00;;;;;;5160151;27;20425;-34
2022/01/25 06:23:15;;;;;;;17.10;8.63;;;-2.80;69.00;;;;;;5160735;27;20027;-35
2022/01/25 06:25:41;;;;;;;18.45;8.65;;;-2.70;68.80;;;;;;5160018;27;20492;-33
2022/01/25 06:28:07;;;;;;;17.85;8.45;;;-2.70;68.80;;;;;;5160422;27;20026;-33
2022/01/25 06:30:33;;;;;;;15.48;8.70;;;-2.70;68.10;;;;;;5159948;27;20080;-32
2022/01/25 06:32:59;;;;;;;24.25;9.45;;;-2.60;68.20;;;;;;5160206;27;20045;-33
2022/01/25 06:35:30;;;;;;;18.17;8.27;;;-2.60;68.20;;;;;;5159937;27;20087;-32
2022/01/25 06:37:56;;;;;;;14.68;8.05;;;-2.70;67.90;;;;;;5160226;27;20034;-32
2022/01/25 06:40:24;;;;;;;13.90;7.35;;;-2.60;67.80;;;;;;5159964;27;20030;-34
2022/01/25 06:42:49;;;;;;;15.48;8.10;;;-2.70;67.60;;;;;;5160055;27;20034;-32
2022/01/25 06:45:18;;;;;;;15.07;7.78;;;-2.70;67.70;;;;;;5159727;27;20031;-32
2022/01/25 06:47:45;;;;;;;15.13;7.38;;;-2.70;67.80;;;;;;5159941;27;20319;-33
2022/01/25 06:50:12;;;;;;;15.85;7.65;;;-2.70;67.90;;;;;;5159587;27;20407;-32
2022/01/25 06:52:40;;;;;;;15.50;8.32;;;-2.70;67.80;;;;;;5159892;27;20072;-34
2022/01/25 06:55:09;;;;;;;16.77;7.78;;;-2.70;67.70;;;;;;5159804;27;20049;-34
2022/01/25 06:57:34;;;;;;;18.50;8.52;;;-2.70;67.80;;;;;;5159628;27;20031;-34
2022/01/25 07:00:00;;;;;;;17.38;8.15;;;-2.60;67.70;;;;;;5159508;27;20027;-33
2022/01/25 07:02:26;;;;;;;16.20;7.85;;;-2.70;67.50;;;;;;5159163;27;20049;-33
2022/01/25 07:04:52;;;;;;;17.20;8.35;;;-2.70;67.30;;;;;;5159519;27;20110;-34
2022/01/25 07:07:18;;;;;;;19.52;13.70;;;-2.70;67.20;;;;;;5159283;27;20098;-33
2022/01/25 07:09:43;;;;;;;16.20;7.90;;;-2.70;67.20;;;;;;5159097;27;20042;-32
2022/01/25 07:12:09;;;;;;;16.00;8.00;;;-2.70;67.30;;;;;;5159119;27;20046;-32
2022/01/25 07:14:35;;;;;;;14.30;7.60;;;-2.80;67.10;;;;;;5158979;27;20060;-34
2022/01/25 07:17:01;;;;;;;17.10;8.43;;;-2.80;66.90;;;;;;5159248;27;20071;-33
2022/01/25 07:19:27;;;;;;;15.35;7.65;;;-2.80;67.00;;;;;;5158894;27;20035;-33
2022/01/25 07:21:52;;;;;;;13.43;7.70;;;-2.80;67.30;;;;;;5159346;27;20102;-33
2022/01/25 07:24:18;;;;;;;17.13;8.25;;;-2.80;67.30;;;;;;5158677;27;20031;-34
2022/01/25 07:26:44;;;;;;;18.73;8.48;;;-2.80;67.10;;;;;;5158916;27;20102;-34
2022/01/25 07:29:10;;;;;;;13.50;6.65;;;-2.80;67.20;;;;;;5159232;27;20046;-32
2022/01/25 07:31:35;;;;;;;15.52;7.60;;;-2.80;67.00;;;;;;5158896;27;20035;-34
2022/01/25 07:34:01;;;;;;;14.00;7.68;;;-2.80;67.00;;;;;;5159342;27;20109;-32
2022/01/25 07:36:27;;;;;;;19.17;8.23;;;-2.80;67.00;;;;;;5158657;27;20042;-35
2022/01/25 07:38:52;;;;;;;13.82;7.18;;;-2.70;67.10;;;;;;5159177;27;20406;-32
2022/01/25 07:41:18;;;;;;;18.02;7.78;;;-2.70;66.80;;;;;;5158391;27;20296;-34
2022/01/25 07:43:44;;;;;;;16.20;7.65;;;-2.70;66.90;;;;;;5159137;27;20074;-33
2022/01/25 07:46:10;;;;;;;19.98;7.75;;;-2.70;66.70;;;;;;5158340;27;20031;-32
2022/01/25 07:48:35;;;;;;;18.98;9.80;;;-2.70;66.60;;;;;;5158827;27;20276;-33
2022/01/25 07:51:01;;;;;;;19.85;8.60;;;-2.70;66.60;;;;;;5158532;27;20034;-34
2022/01/25 07:53:27;;;;;;;16.60;8.50;;;-2.70;66.50;;;;;;5158816;27;20027;-33
2022/01/25 07:55:53;;;;;;;24.75;13.25;;;-2.70;66.50;;;;;;5152650;27;20068;-34
2022/01/25 07:58:18;;;;;;;17.45;8.98;;;-2.70;66.80;;;;;;5138045;27;20130;-32
2022/01/25 08:00:47;;;;;;;18.08;8.48;;;-2.60;66.80;;;;;;5145053;27;20027;-33
2022/01/25 08:03:12;;;;;;;23.17;10.57;;;-2.50;66.80;;;;;;5151558;27;20020;-33
2022/01/25 08:05:38;;;;;;;24.35;10.13;;;-2.50;66.50;;;;;;5153465;27;20026;-33
2022/01/25 08:08:04;;;;;;;18.63;8.85;;;-2.40;66.40;;;;;;5157856;27;20035;-32
2022/01/25 08:10:30;;;;;;;26.45;12.77;;;-2.40;65.90;;;;;;5157469;27;20318;-32
2022/01/25 08:12:55;;;;;;;15.25;7.38;;;-2.30;66.00;;;;;;5158247;27;20019;-33
2022/01/25 08:15:24;;;;;;;17.90;7.88;;;-2.40;65.80;;;;;;5157715;27;20054;-32
2022/01/25 08:17:50;;;;;;;28.77;10.80;;;-2.30;65.70;;;;;;5157924;27;20035;-33
2022/01/25 08:20:15;;;;;;;22.52;8.80;;;-2.30;65.70;;;;;;5157505;27;20026;-33
2022/01/25 08:22:44;;;;;;;21.95;10.60;;;-2.30;65.50;;;;;;5157798;27;20030;-33
2022/01/25 08:25:10;;;;;;;41.28;19.70;;;-2.30;65.20;;;;;;5156854;27;20475;-31
2022/01/25 08:27:36;;;;;;;15.82;8.15;;;-2.40;65.10;;;;;;5157516;27;20030;-33
2022/01/25 08:30:02;;;;;;;22.85;12.55;;;-2.40;65.10;;;;;;5157554;27;20030;-33
2022/01/25 08:32:28;;;;;;;18.98;9.20;;;-2.40;65.20;;;;;;5157660;27;20038;-32
2022/01/25 08:34:54;;;;;;;18.50;7.85;;;-2.40;65.40;;;;;;5157323;27;20030;-34
2022/01/25 08:37:19;;;;;;;18.98;8.50;;;-2.40;65.10;;;;;;5157481;27;20031;-33
2022/01/25 08:39:45;;;;;;;18.27;8.73;;;-2.40;64.90;;;;;;5157114;27;20031;-33
2022/01/25 08:42:11;;;;;;;19.80;10.02;;;-2.40;64.80;;;;;;5157786;27;20027;-32
2022/01/25 08:44:38;;;;;;;18.67;8.52;;;-2.40;65.10;;;;;;5157043;27;20033;-32
2022/01/25 08:47:04;;;;;;;14.25;6.90;;;-2.40;65.10;;;;;;5157460;27;20031;-32
2022/01/25 08:49:30;;;;;;;17.50;8.85;;;-2.40;65.10;;;;;;5157174;27;20031;-33
2022/01/25 08:51:57;;;;;;;19.77;8.70;;;-2.30;65.30;;;;;;5157742;27;20029;-33
2022/01/25 08:54:23;;;;;;;16.85;8.65;;;-2.30;65.00;;;;;;5155940;27;20038;-33
2022/01/25 08:56:49;;;;;;;19.48;8.18;;;-2.20;64.90;;;;;;5145807;27;20030;-33
2022/01/25 08:59:14;;;;;;;15.05;7.75;;;-2.20;64.90;;;;;;5157231;27;20042;-33
2022/01/25 09:01:40;;;;;;;17.92;7.97;;;-2.10;65.00;;;;;;5157266;27;20034;-34
2022/01/25 09:04:06;;;;;;;16.60;8.00;;;-2.10;65.00;;;;;;5157815;27;20027;-33
2022/01/25 09:06:34;;;;;;;16.48;8.02;;;-2.00;64.80;;;;;;5156754;27;20041;-34
2022/01/25 09:09:02;;;;;;;16.90;9.27;;;-1.90;64.60;;;;;;5157219;27;20050;-34
2022/01/25 09:11:28;;;;;;;15.80;7.78;;;-1.90;64.60;;;;;;5157361;27;20395;-33
2022/01/25 09:13:54;;;;;;;34.13;22.98;;;-1.90;64.40;;;;;;5156492;27;20031;-33
2022/01/25 09:16:20;;;;;;;13.65;7.20;;;-1.90;64.20;;;;;;5156993;27;20399;-33
2022/01/25 09:18:45;;;;;;;16.42;8.60;;;-1.80;64.40;;;;;;5157011;27;20031;-33
2022/01/25 09:21:11;;;;;;;17.40;8.27;;;-1.80;64.30;;;;;;5156999;27;20033;-32
2022/01/25 09:23:37;;;;;;;16.25;7.85;;;-1.80;64.10;;;;;;5157256;27;20398;-33
2022/01/25 09:26:04;;;;;;;16.45;8.20;;;-1.80;64.00;;;;;;5156815;27;20052;-33
2022/01/25 09:28:30;;;;;;;17.63;8.32;;;-1.80;64.00;;;;;;5157091;27;20045;-33
2022/01/25 09:30:56;;;;;;;45.17;27.52;;;-1.90;63.90;;;;;;5156853;27;20062;-33
2022/01/25 09:33:23;;;;;;;18.63;9.98;;;-1.90;64.30;;;;;;5145455;27;20038;-32
2022/01/25 09:35:50;;;;;;;16.95;9.57;;;-1.80;64.40;;;;;;5137804;27;20031;-32
2022/01/25 09:38:16;;;;;;;16.90;8.57;;;-1.70;64.40;;;;;;5140258;27;20023;-33
2022/01/25 09:40:42;;;;;;;19.40;8.63;;;-1.70;64.30;;;;;;5139402;27;20038;-33
2022/01/25 09:43:08;;;;;;;19.48;8.65;;;-1.60;64.40;;;;;;5139973;27;20462;-38
2022/01/25 09:45:36;;;;;;;19.50;9.57;;;-1.60;64.50;;;;;;5139799;27;20080;-38
2022/01/25 09:48:03;;;;;;;18.70;9.48;;;-1.50;64.30;;;;;;5139597;27;20403;-33
2022/01/25 09:50:29;;;;;;;21.23;10.45;;;-1.40;64.10;;;;;;5139919;27;20349;-32
2022/01/25 09:52:55;;;;;;;27.80;12.35;;;-1.40;63.80;;;;;;5140199;27;20027;-38
2022/01/25 09:55:23;;;;;;;23.08;10.73;;;-1.40;64.00;;;;;;5139418;27;20403;-39
2022/01/25 09:57:49;;;;;;;15.93;8.65;;;-1.40;63.90;;;;;;5140082;27;20027;-39
2022/01/25 10:00:19;;;;;;;17.88;9.02;;;-1.30;64.00;;;;;;5139208;27;20031;-40
2022/01/25 10:02:51;;;;;;;23.97;10.30;;;-1.20;63.80;;;;;;5139708;27;20035;-33
2022/01/25 10:05:23;;;;;;;29.58;12.50;;;-1.20;63.10;;;;;;5139495;27;20110;-37
2022/01/25 10:08:04;;;;;;;24.05;16.55;;;-1.20;63.20;;;;;;5139278;27;20051;-36
2022/01/25 10:10:30;;;;;;;17.67;9.63;;;-1.20;63.30;;;;;;5139368;27;20034;-40
2022/01/25 10:13:08;;;;;;;20.50;9.25;;;-1.10;63.20;;;;;;5139863;27;20318;-38
2022/01/25 10:15:34;;;;;;;16.83;9.40;;;-1.10;63.00;;;;;;5139245;27;20031;-39
2022/01/25 10:18:00;;;;;;;40.50;23.15;;;-1.10;62.90;;;;;;5139865;27;20030;-37
2022/01/25 10:20:31;;;;;;;401.35;177.77;;;-1.10;63.10;;;;;;5139267;27;20062;-32
2022/01/25 10:23:00;;;;;;;22.92;11.18;;;-1.10;63.10;;;;;;5138818;27;20424;-33
2022/01/25 10:25:38;;;;;;;27.17;11.90;;;-1.00;63.00;;;;;;5119932;27;20028;-40
2022/01/25 10:28:11;;;;;;;15.70;8.43;;;-1.00;62.90;;;;;;5139370;27;20407;-32
2022/01/25 10:30:47;;;;;;;15.77;7.70;;;-0.90;62.50;;;;;;5138840;27;20140;-38
2022/01/25 10:33:40;;;;;;;152.25;57.28;;;-0.90;62.30;;;;;;5139261;27;20043;-32
2022/01/25 10:36:09;;;;;;;23.50;10.48;;;-1.00;62.10;;;;;;5139461;27;20031;-36
2022/01/25 10:38:35;;;;;;;29.30;12.75;;;-0.90;62.90;;;;;;5138762;27;20406;-33
2022/01/25 10:41:05;;;;;;;21.20;9.50;;;-0.90;62.20;;;;;;5139120;27;20069;-32
2022/01/25 10:43:33;;;;;;;17.67;9.13;;;-1.00;62.00;;;;;;5139407;27;20023;-33
2022/01/25 10:46:14;;;;;;;18.77;8.20;;;-1.00;62.10;;;;;;5138471;27;20046;-32
2022/01/25 10:49:02;;;;;;;31.92;14.20;;;-1.00;62.40;;;;;;5138488;27;20363;-39
2022/01/25 10:51:34;;;;;;;16.10;7.97;;;-0.90;62.80;;;;;;5124063;27;20043;-32
2022/01/25 10:54:09;;;;;;;12.43;6.65;;;-0.90;62.50;;;;;;5138790;27;20023;-41
2022/01/25 10:56:42;;;;;;;86.43;36.13;;;-0.90;62.00;;;;;;5138723;27;20100;-40
2022/01/25 10:59:11;;;;;;;12.10;6.80;;;-0.90;61.80;;;;;;5138791;27;20019;-34
2022/01/25 11:01:49;;;;;;;14.35;7.40;;;-0.90;61.60;;;;;;5138541;27;20038;-33
2022/01/25 11:04:17;;;;;;;13.38;6.88;;;-0.90;61.60;;;;;;5138215;27;20034;-34
2022/01/25 11:06:44;;;;;;;12.63;7.05;;;-0.90;61.50;;;;;;5138225;27;20111;-33
2022/01/25 11:09:12;;;;;;;11.23;6.05;;;-1.00;61.60;;;;;;5138501;27;20050;-37
2022/01/25 11:11:44;;;;;;;11.95;6.85;;;-1.00;61.80;;;;;;5138699;27;20355;-41
2022/01/25 11:16:55;;;;;;;18.35;9.80;;;-1.00;61.70;;;;;;5138776;27;20034;-39
2022/01/25 11:19:22;;;;;;;14.60;8.43;;;-1.10;61.40;;;;;;5138097;27;20095;-40
2022/01/25 11:21:52;;;;;;;15.40;8.05;;;-1.10;61.70;;;;;;5138606;27;20315;-33
2022/01/25 11:24:19;;;;;;;15.38;8.32;;;-1.10;61.90;;;;;;5138202;27;20028;-38
2022/01/25 11:26:47;;;;;;;19.35;9.55;;;-1.10;62.10;;;;;;5137822;27;20027;-33
2022/01/25 11:29:14;;;;;;;17.67;8.82;;;-1.10;62.20;;;;;;5137568;27;20377;-39
2022/01/25 11:31:44;;;;;;;13.23;7.22;;;-1.00;62.10;;;;;;5125901;27;20028;-33
2022/01/25 11:34:13;;;;;;;50.45;24.17;;;-1.00;61.90;;;;;;5117525;28;20054;-34
2022/01/25 11:36:50;;;;;;;33.85;17.05;;;-1.00;61.80;;;;;;5117264;28;20032;-40
2022/01/25 11:39:20;;;;;;;22.23;11.05;;;-1.00;61.90;;;;;;5136493;27;20035;-33
2022/01/25 11:41:45;;;;;;;19.73;10.10;;;-1.00;61.80;;;;;;5137427;27;20470;-34
2022/01/25 11:44:15;;;;;;;22.48;11.73;;;-1.00;61.60;;;;;;5138032;27;20055;-33
2022/01/25 11:46:42;;;;;;;23.33;10.68;;;-1.00;61.50;;;;;;5131815;27;20030;-33
2022/01/25 11:49:18;;;;;;;23.90;12.27;;;-1.10;61.40;;;;;;5117307;28;20041;-40
2022/01/25 11:51:46;;;;;;;18.77;9.32;;;-1.00;61.60;;;;;;5117417;28;20058;-34
2022/01/25 11:54:12;;;;;;;16.65;9.73;;;-1.00;61.70;;;;;;5117074;28;20032;-41
2022/01/25 11:56:40;;;;;;;17.63;9.25;;;-1.00;61.80;;;;;;5116930;28;20115;-35
2022/01/25 11:59:06;;;;;;;20.80;10.07;;;-1.10;61.60;;;;;;5115569;28;20080;-41
2022/01/25 12:01:34;;;;;;;19.50;9.98;;;-1.10;61.80;;;;;;5116508;28;20032;-34
2022/01/25 12:04:06;;;;;;;20.70;10.60;;;-1.10;62.00;;;;;;5117101;28;20420;-39
2022/01/25 12:06:39;;;;;;;20.15;9.95;;;-1.10;62.20;;;;;;5116433;28;20034;-34
2022/01/25 12:09:31;;;;;;;24.15;10.43;;;-1.00;62.10;;;;;;5116263;28;20040;-41
2022/01/25 12:12:07;;;;;;;26.13;10.95;;;-1.00;62.10;;;;;;5116276;28;20322;-34
2022/01/25 12:14:48;;;;;;;19.83;10.80;;;-1.00;62.30;;;;;;5116444;28;20126;-39
2022/01/25 12:17:24;;;;;;;24.17;12.30;;;-0.90;62.30;;;;;;5116909;28;20092;-38
2022/01/25 12:19:51;;;;;;;21.58;10.77;;;-0.90;62.20;;;;;;5116764;28;20066;-40
2022/01/25 12:22:40;;;;;;;24.10;11.07;;;-0.90;61.90;;;;;;5116612;28;20035;-41
2022/01/25 12:25:35;;;;;;;23.60;10.77;;;-1.00;61.90;;;;;;5135989;27;20454;-33
2022/01/25 12:28:10;;;;;;;23.15;10.45;;;-1.00;61.70;;;;;;5142445;27;20105;-40
2022/01/25 12:30:44;;;;;;;25.85;13.45;;;-1.10;61.80;;;;;;5157473;27;20033;-33
2022/01/25 12:33:20;;;;;;;22.00;11.02;;;-1.10;61.80;;;;;;5157945;27;20069;-41
2022/01/25 12:36:08;;;;;;;18.40;9.60;;;-1.10;61.70;;;;;;5157137;27;20045;-34
2022/01/25 12:38:49;;;;;;;19.90;10.23;;;-1.20;61.60;;;;;;5157950;27;20057;-33
2022/01/25 12:41:28;;;;;;;19.65;10.52;;;-1.20;61.60;;;;;;5157616;27;20031;-34
2022/01/25 12:43:59;;;;;;;20.58;9.82;;;-1.20;61.90;;;;;;5157480;27;20037;-33
2022/01/25 12:46:40;;;;;;;18.83;9.35;;;-1.30;61.90;;;;;;5157370;27;20022;-34
2022/01/25 12:49:11;;;;;;;19.98;11.30;;;-1.20;61.80;;;;;;5158065;27;20389;-34
2022/01/25 12:51:39;;;;;;;20.63;10.00;;;-1.20;61.90;;;;;;5157602;27;20049;-33
2022/01/25 12:54:07;;;;;;;130.77;43.10;;;-1.20;61.80;;;;;;5157787;27;20414;-41
2022/01/25 12:56:42;;;;;;;36.22;15.68;;;-1.10;61.90;;;;;;5157499;27;20359;-35
2022/01/25 12:59:13;;;;;;;18.88;9.23;;;-1.10;61.80;;;;;;5157664;27;20034;-38
2022/01/25 13:01:42;;;;;;;20.95;10.35;;;-1.10;61.50;;;;;;5157443;27;20030;-41
2022/01/25 13:04:09;;;;;;;20.30;9.65;;;-1.10;61.40;;;;;;5138661;27;20047;-41
2022/01/25 13:06:46;;;;;;;20.90;9.82;;;-1.10;62.00;;;;;;5157489;27;20110;-33
2022/01/25 13:09:19;;;;;;;15.50;9.13;;;-1.10;61.50;;;;;;5156535;27;20063;-40
2022/01/25 13:17:15;;;;;;;19.05;10.73;;;-1.00;61.60;;;;;;5157521;27;20026;-40
2022/01/25 13:19:53;;;;;;;17.90;9.63;;;-1.00;61.60;;;;;;5138568;27;20378;-34
2022/01/25 13:22:23;;;;;;;16.48;9.20;;;-1.00;61.60;;;;;;5157393;27;20322;-34
2022/01/25 13:25:00;;;;;;;17.88;10.50;;;-1.00;61.80;;;;;;5157388;27;20054;-39
2022/01/25 13:27:45;;;;;;;18.23;9.30;;;-1.00;61.50;;;;;;5157231;27;20103;-34
2022/01/25 13:33:09;;;;;;;18.65;9.25;;;-1.00;61.90;;;;;;5143734;27;20273;-37
2022/01/25 13:35:39;;;;;;;20.60;10.73;;;-1.00;61.40;;;;;;5156688;27;20058;-42
2022/01/25 13:38:16;;;;;;;18.02;9.75;;;-0.90;61.50;;;;;;5157366;27;20038;-39
2022/01/25 13:40:58;;;;;;;17.50;10.50;;;-0.90;60.90;;;;;;5156751;27;20041;-33
2022/01/25 13:46:10;;;;;;;18.58;10.43;;;-0.90;60.50;;;;;;5157133;27;20459;-40
2022/01/25 13:48:36;;;;;;;21.80;10.75;;;-1.00;60.20;;;;;;5156891;27;20080;-42
2022/01/25 13:51:09;;;;;;;24.63;11.93;;;-1.10;60.20;;;;;;5156852;27;20035;-35
2022/01/25 13:53:37;;;;;;;18.40;10.65;;;-1.10;60.90;;;;;;5157155;27;20107;-33
2022/01/25 13:56:05;;;;;;;22.65;11.07;;;-1.20;60.50;;;;;;5156698;27;20418;-34
2022/01/25 13:58:42;;;;;;;21.33;11.70;;;-1.20;60.50;;;;;;5156978;27;20183;-42
2022/01/25 14:01:10;;;;;;;21.08;12.10;;;-1.20;60.50;;;;;;5156576;27;20098;-41
2022/01/25 14:03:41;;;;;;;31.98;14.40;;;-1.20;60.30;;;;;;5157042;27;20026;-34
2022/01/25 14:06:20;;;;;;;23.75;12.93;;;-1.30;60.30;;;;;;5156397;27;20057;-33
2022/01/25 14:08:46;;;;;;;28.63;14.77;;;-1.30;60.40;;;;;;5156470;27;20126;-34
2022/01/25 14:11:28;;;;;;;25.40;13.80;;;-1.40;60.40;;;;;;5156182;27;20022;-34
2022/01/25 14:22:42;;;;;;;29.75;13.43;;;-1.60;60.30;;;;;;5139312;27;20039;-41
2022/01/25 14:25:09;;;;;;;30.98;14.40;;;-1.70;60.40;;;;;;5159918;27;20034;-41
2022/01/25 14:27:49;;;;;;;29.15;15.15;;;-1.80;60.60;;;;;;5160349;27;20102;-40
2022/01/25 14:30:17;;;;;;;28.02;13.88;;;-1.80;60.60;;;;;;5160495;27;20030;-33
2022/01/25 14:32:42;;;;;;;34.03;16.75;;;-1.80;60.70;;;;;;5160419;27;20083;-33
2022/01/25 14:35:11;;;;;;;43.15;20.10;;;-1.90;60.60;;;;;;5159912;27;20467;-39
2022/01/25 14:37:47;;;;;;;45.40;20.52;;;-1.90;60.70;;;;;;5160354;27;20157;-35
2022/01/25 14:40:16;;;;;;;115.85;54.13;;;-2.00;60.80;;;;;;5159593;27;20030;-41
2022/01/25 14:42:44;;;;;;;42.70;20.42;;;-2.00;60.90;;;;;;5159976;27;20030;-39
2022/01/25 14:45:14;;;;;;;48.97;22.42;;;-2.00;61.00;;;;;;5159267;27;20019;-41
2022/01/25 14:47:45;;;;;;;49.27;23.77;;;-2.00;61.00;;;;;;5159771;27;20294;-42
2022/01/25 14:50:33;;;;;;;61.70;24.17;;;-2.10;61.10;;;;;;5152126;27;20604;-42
2022/01/25 14:53:09;;;;;;;71.13;27.23;;;-2.10;61.20;;;;;;5157243;27;20038;-34
2022/01/25 14:55:38;;;;;;;86.40;30.38;;;-2.10;61.30;;;;;;5159034;27;20070;-39